Perkasie, Pennsylvania
Current Conditions -  °F | °C
As of 9:55 PM on Friday 21 Nov 2014 (Local Time) from KUKT Reporting Station
Clear Clear  
Wind Chill: 25°   Ceiling: Unl
Heat Index: 25°   Visibility: 10mi
Dew Point: 10°   Wind: 3mph
Humidity: 54%   Direction: 280°W
Pressure: 30.5"   Gusts: NA
Location:  40.37°N, 75.3°W
Report Text: KUKT 220255Z AUTO 28003KT 10SM CLR M04/M12 A3050 RMK AO1
Loading
Personal Weather Stations






























Interactive Weather Map New forecast layout! Learn more

10-Day Weather Forecast

Advertisements
Track Severe Weather on mobile